sensor_id;sensor_type;location;lat;lon;timestamp;pressure;altitude;pressure_sealevel;temperature
73894;BMP280;62699;50.534;12.784;2024-02-16T00:01:27;96295.88;;;8.75
73894;BMP280;62699;50.534;12.784;2024-02-16T00:06:28;96296.03;;;8.61
73894;BMP280;62699;50.534;12.784;2024-02-16T00:11:28;96293.63;;;8.63
73894;BMP280;62699;50.534;12.784;2024-02-16T00:16:29;96284.13;;;8.67
73894;BMP280;62699;50.534;12.784;2024-02-16T00:21:29;96291.78;;;8.80
73894;BMP280;62699;50.534;12.784;2024-02-16T00:26:29;96279.53;;;8.73
73894;BMP280;62699;50.534;12.784;2024-02-16T00:31:29;96268.50;;;8.66
73894;BMP280;62699;50.534;12.784;2024-02-16T00:36:30;96272.88;;;8.63
73894;BMP280;62699;50.534;12.784;2024-02-16T00:41:31;96275.97;;;8.51
73894;BMP280;62699;50.534;12.784;2024-02-16T00:46:31;96269.06;;;8.39
73894;BMP280;62699;50.534;12.784;2024-02-16T00:51:32;96263.94;;;8.41
73894;BMP280;62699;50.534;12.784;2024-02-16T00:56:32;96262.50;;;8.40
73894;BMP280;62699;50.534;12.784;2024-02-16T01:01:33;96265.34;;;8.30
73894;BMP280;62699;50.534;12.784;2024-02-16T01:06:33;96259.19;;;8.19
73894;BMP280;62699;50.534;12.784;2024-02-16T01:11:33;96258.88;;;7.85
73894;BMP280;62699;50.534;12.784;2024-02-16T01:16:34;96266.59;;;7.52
73894;BMP280;62699;50.534;12.784;2024-02-16T01:21:35;96253.34;;;7.23
73894;BMP280;62699;50.534;12.784;2024-02-16T01:26:36;96245.13;;;7.06
73894;BMP280;62699;50.534;12.784;2024-02-16T01:31:36;96231.59;;;7.15
73894;BMP280;62699;50.534;12.784;2024-02-16T01:36:37;96228.56;;;7.48
73894;BMP280;62699;50.534;12.784;2024-02-16T01:41:40;96228.44;;;7.63
73894;BMP280;62699;50.534;12.784;2024-02-16T01:46:40;96229.88;;;7.84
73894;BMP280;62699;50.534;12.784;2024-02-16T01:51:42;96235.16;;;8.04
73894;BMP280;62699;50.534;12.784;2024-02-16T01:56:42;96228.16;;;8.12
73894;BMP280;62699;50.534;12.784;2024-02-16T02:01:42;96226.84;;;8.33
73894;BMP280;62699;50.534;12.784;2024-02-16T02:06:43;96220.41;;;8.57
73894;BMP280;62699;50.534;12.784;2024-02-16T02:11:44;96216.03;;;8.65
73894;BMP280;62699;50.534;12.784;2024-02-16T02:16:44;96210.00;;;8.70
73894;BMP280;62699;50.534;12.784;2024-02-16T02:21:45;96211.97;;;8.80
73894;BMP280;62699;50.534;12.784;2024-02-16T02:26:45;96218.03;;;8.70
73894;BMP280;62699;50.534;12.784;2024-02-16T02:31:46;96209.22;;;8.64
73894;BMP280;62699;50.534;12.784;2024-02-16T02:36:46;96212.81;;;8.50
73894;BMP280;62699;50.534;12.784;2024-02-16T02:41:46;96200.94;;;8.25
73894;BMP280;62699;50.534;12.784;2024-02-16T02:46:47;96206.81;;;7.92
73894;BMP280;62699;50.534;12.784;2024-02-16T02:51:47;96196.81;;;7.67
73894;BMP280;62699;50.534;12.784;2024-02-16T02:56:48;96187.38;;;7.45
73894;BMP280;62699;50.534;12.784;2024-02-16T03:01:48;96188.47;;;7.33
73894;BMP280;62699;50.534;12.784;2024-02-16T03:06:51;96185.41;;;7.20
73894;BMP280;62699;50.534;12.784;2024-02-16T03:11:51;96193.84;;;7.13
73894;BMP280;62699;50.534;12.784;2024-02-16T03:16:53;96198.38;;;7.01
73894;BMP280;62699;50.534;12.784;2024-02-16T03:21:53;96197.03;;;6.91
73894;BMP280;62699;50.534;12.784;2024-02-16T03:26:53;96197.50;;;6.90
73894;BMP280;62699;50.534;12.784;2024-02-16T03:31:53;96206.72;;;6.89
73894;BMP280;62699;50.534;12.784;2024-02-16T03:36:54;96211.97;;;6.83
73894;BMP280;62699;50.534;12.784;2024-02-16T03:41:54;96201.50;;;6.80
73894;BMP280;62699;50.534;12.784;2024-02-16T03:46:54;96202.44;;;6.77
73894;BMP280;62699;50.534;12.784;2024-02-16T03:51:54;96197.94;;;6.68
73894;BMP280;62699;50.534;12.784;2024-02-16T03:56:55;96191.31;;;6.63
73894;BMP280;62699;50.534;12.784;2024-02-16T04:01:55;96204.59;;;6.58
73894;BMP280;62699;50.534;12.784;2024-02-16T04:06:56;96209.94;;;6.58
73894;BMP280;62699;50.534;12.784;2024-02-16T04:11:57;96214.31;;;6.55
73894;BMP280;62699;50.534;12.784;2024-02-16T04:16:57;96216.56;;;6.62
73894;BMP280;62699;50.534;12.784;2024-02-16T04:22:00;96223.59;;;6.60
73894;BMP280;62699;50.534;12.784;2024-02-16T04:27:00;96227.94;;;6.57
73894;BMP280;62699;50.534;12.784;2024-02-16T04:32:01;96234.22;;;6.54
73894;BMP280;62699;50.534;12.784;2024-02-16T04:37:01;96232.28;;;6.55
73894;BMP280;62699;50.534;12.784;2024-02-16T04:42:01;96234.47;;;6.56
73894;BMP280;62699;50.534;12.784;2024-02-16T04:47:02;96226.94;;;6.55
73894;BMP280;62699;50.534;12.784;2024-02-16T04:52:04;96208.16;;;6.49
73894;BMP280;62699;50.534;12.784;2024-02-16T04:57:04;96199.84;;;6.47
73894;BMP280;62699;50.534;12.784;2024-02-16T05:02:04;96214.69;;;6.48
73894;BMP280;62699;50.534;12.784;2024-02-16T05:07:07;96220.56;;;6.52
73894;BMP280;62699;50.534;12.784;2024-02-16T05:12:07;96208.16;;;6.49
73894;BMP280;62699;50.534;12.784;2024-02-16T05:17:08;96202.81;;;6.49
73894;BMP280;62699;50.534;12.784;2024-02-16T05:22:08;96198.94;;;6.50
73894;BMP280;62699;50.534;12.784;2024-02-16T05:27:09;96208.88;;;6.50
73894;BMP280;62699;50.534;12.784;2024-02-16T05:32:10;96202.81;;;6.49
73894;BMP280;62699;50.534;12.784;2024-02-16T05:37:12;96207.22;;;6.52
73894;BMP280;62699;50.534;12.784;2024-02-16T05:42:15;96195.53;;;6.50
73894;BMP280;62699;50.534;12.784;2024-02-16T05:47:15;96186.19;;;6.45
73894;BMP280;62699;50.534;12.784;2024-02-16T05:52:16;96177.56;;;6.36
73894;BMP280;62699;50.534;12.784;2024-02-16T05:57:19;96183.50;;;6.25
73894;BMP280;62699;50.534;12.784;2024-02-16T06:02:19;96187.00;;;6.16
73894;BMP280;62699;50.534;12.784;2024-02-16T06:07:19;96180.56;;;6.08
73894;BMP280;62699;50.534;12.784;2024-02-16T06:12:20;96180.19;;;6.01
73894;BMP280;62699;50.534;12.784;2024-02-16T06:17:20;96187.22;;;5.98
73894;BMP280;62699;50.534;12.784;2024-02-16T06:22:20;96186.47;;;5.98
73894;BMP280;62699;50.534;12.784;2024-02-16T06:27:21;96191.81;;;5.98
73894;BMP280;62699;50.534;12.784;2024-02-16T06:32:21;96197.97;;;6.04
73894;BMP280;62699;50.534;12.784;2024-02-16T06:37:21;96207.09;;;6.12
73894;BMP280;62699;50.534;12.784;2024-02-16T06:42:22;96212.63;;;6.23
73894;BMP280;62699;50.534;12.784;2024-02-16T06:47:22;96214.06;;;6.39
73894;BMP280;62699;50.534;12.784;2024-02-16T06:52:25;96213.09;;;6.56
73894;BMP280;62699;50.534;12.784;2024-02-16T06:57:26;96222.47;;;6.81
73894;BMP280;62699;50.534;12.784;2024-02-16T07:02:26;96221.78;;;7.06
73894;BMP280;62699;50.534;12.784;2024-02-16T07:07:26;96217.88;;;7.28
73894;BMP280;62699;50.534;12.784;2024-02-16T07:12:27;96211.00;;;7.47
73894;BMP280;62699;50.534;12.784;2024-02-16T07:17:27;96208.31;;;7.73
73894;BMP280;62699;50.534;12.784;2024-02-16T07:22:27;96211.66;;;7.93
73894;BMP280;62699;50.534;12.784;2024-02-16T07:27:27;96214.75;;;8.49
73894;BMP280;62699;50.534;12.784;2024-02-16T07:32:28;96214.53;;;9.12
73894;BMP280;62699;50.534;12.784;2024-02-16T07:37:28;96210.91;;;9.37
73894;BMP280;62699;50.534;12.784;2024-02-16T07:42:28;96205.38;;;9.80
73894;BMP280;62699;50.534;12.784;2024-02-16T07:47:29;96196.69;;;11.11
73894;BMP280;62699;50.534;12.784;2024-02-16T07:52:29;96214.16;;;12.72
73894;BMP280;62699;50.534;12.784;2024-02-16T07:57:29;96214.09;;;12.35
73894;BMP280;62699;50.534;12.784;2024-02-16T08:02:31;96201.81;;;12.58
73894;BMP280;62699;50.534;12.784;2024-02-16T08:07:31;96200.13;;;12.93
73894;BMP280;62699;50.534;12.784;2024-02-16T08:12:31;96196.41;;;15.38
73894;BMP280;62699;50.534;12.784;2024-02-16T08:17:36;96222.09;;;15.86
73894;BMP280;62699;50.534;12.784;2024-02-16T08:22:36;96213.28;;;15.23
73894;BMP280;62699;50.534;12.784;2024-02-16T08:27:37;96212.88;;;14.72
73894;BMP280;62699;50.534;12.784;2024-02-16T08:32:38;96214.44;;;13.89
73894;BMP280;62699;50.534;12.784;2024-02-16T08:37:39;96202.97;;;13.69
73894;BMP280;62699;50.534;12.784;2024-02-16T08:42:42;96204.84;;;13.74
73894;BMP280;62699;50.534;12.784;2024-02-16T08:47:43;96207.47;;;13.80
73894;BMP280;62699;50.534;12.784;2024-02-16T08:52:43;96202.81;;;13.94
73894;BMP280;62699;50.534;12.784;2024-02-16T08:57:45;96196.56;;;13.99
73894;BMP280;62699;50.534;12.784;2024-02-16T09:02:48;96201.25;;;13.98
73894;BMP280;62699;50.534;12.784;2024-02-16T09:07:49;96202.06;;;13.93
73894;BMP280;62699;50.534;12.784;2024-02-16T09:12:49;96211.34;;;13.98
73894;BMP280;62699;50.534;12.784;2024-02-16T09:17:51;96196.75;;;14.14
73894;BMP280;62699;50.534;12.784;2024-02-16T09:22:53;96172.41;;;14.27
73894;BMP280;62699;50.534;12.784;2024-02-16T09:27:53;96178.00;;;14.42
73894;BMP280;62699;50.534;12.784;2024-02-16T09:32:53;96173.66;;;14.52
73894;BMP280;62699;50.534;12.784;2024-02-16T09:37:54;96188.72;;;14.61
73894;BMP280;62699;50.534;12.784;2024-02-16T09:42:54;96199.56;;;14.61
73894;BMP280;62699;50.534;12.784;2024-02-16T09:47:55;96201.75;;;14.49
73894;BMP280;62699;50.534;12.784;2024-02-16T09:52:56;96224.16;;;14.37
73894;BMP280;62699;50.534;12.784;2024-02-16T09:58:00;96242.19;;;14.21
73894;BMP280;62699;50.534;12.784;2024-02-16T10:03:00;96253.13;;;14.28
73894;BMP280;62699;50.534;12.784;2024-02-16T10:08:11;96255.19;;;14.22
73894;BMP280;62699;50.534;12.784;2024-02-16T10:13:11;96262.19;;;14.31
73894;BMP280;62699;50.534;12.784;2024-02-16T10:18:11;96238.03;;;14.46
73894;BMP280;62699;50.534;12.784;2024-02-16T10:23:16;96235.31;;;14.46
73894;BMP280;62699;50.534;12.784;2024-02-16T10:28:17;96221.66;;;14.65
73894;BMP280;62699;50.534;12.784;2024-02-16T10:33:20;96197.94;;;14.78
73894;BMP280;62699;50.534;12.784;2024-02-16T10:38:20;96207.31;;;14.91
73894;BMP280;62699;50.534;12.784;2024-02-16T10:43:21;96230.19;;;15.16
73894;BMP280;62699;50.534;12.784;2024-02-16T10:48:22;96249.78;;;15.22
73894;BMP280;62699;50.534;12.784;2024-02-16T10:53:26;96265.22;;;15.14
73894;BMP280;62699;50.534;12.784;2024-02-16T10:58:27;96260.69;;;15.29
73894;BMP280;62699;50.534;12.784;2024-02-16T11:03:27;96245.47;;;15.26
73894;BMP280;62699;50.534;12.784;2024-02-16T11:08:37;96238.19;;;15.21
73894;BMP280;62699;50.534;12.784;2024-02-16T11:13:38;96232.53;;;15.33
73894;BMP280;62699;50.534;12.784;2024-02-16T11:18:41;96225.03;;;15.46
73894;BMP280;62699;50.534;12.784;2024-02-16T11:23:46;96218.44;;;15.34
73894;BMP280;62699;50.534;12.784;2024-02-16T11:28:47;96214.38;;;15.27
73894;BMP280;62699;50.534;12.784;2024-02-16T11:33:47;96211.94;;;15.37
73894;BMP280;62699;50.534;12.784;2024-02-16T11:38:48;96219.22;;;15.42
73894;BMP280;62699;50.534;12.784;2024-02-16T11:43:48;96211.97;;;15.24
73894;BMP280;62699;50.534;12.784;2024-02-16T11:48:49;96206.44;;;15.29
73894;BMP280;62699;50.534;12.784;2024-02-16T11:53:56;96202.44;;;15.44
73894;BMP280;62699;50.534;12.784;2024-02-16T11:58:57;96193.63;;;15.51
73894;BMP280;62699;50.534;12.784;2024-02-16T12:03:57;96193.16;;;15.60
73894;BMP280;62699;50.534;12.784;2024-02-16T12:08:58;96199.50;;;15.62
73894;BMP280;62699;50.534;12.784;2024-02-16T12:13:59;96188.56;;;16.04
73894;BMP280;62699;50.534;12.784;2024-02-16T12:19:04;96200.47;;;15.93
73894;BMP280;62699;50.534;12.784;2024-02-16T12:24:05;96210.78;;;15.95
73894;BMP280;62699;50.534;12.784;2024-02-16T12:29:05;96198.38;;;15.86
73894;BMP280;62699;50.534;12.784;2024-02-16T12:34:05;96206.47;;;15.78
73894;BMP280;62699;50.534;12.784;2024-02-16T12:39:07;96204.03;;;15.88
73894;BMP280;62699;50.534;12.784;2024-02-16T12:44:11;96198.34;;;15.78
73894;BMP280;62699;50.534;12.784;2024-02-16T12:49:11;96215.66;;;15.96
73894;BMP280;62699;50.534;12.784;2024-02-16T12:54:12;96206.34;;;16.05
73894;BMP280;62699;50.534;12.784;2024-02-16T12:59:14;96201.94;;;15.94
73894;BMP280;62699;50.534;12.784;2024-02-16T13:04:15;96206.41;;;16.20
73894;BMP280;62699;50.534;12.784;2024-02-16T13:09:21;96214.63;;;16.07
73894;BMP280;62699;50.534;12.784;2024-02-16T13:14:21;96208.47;;;16.06
73894;BMP280;62699;50.534;12.784;2024-02-16T13:19:22;96210.38;;;15.91
73894;BMP280;62699;50.534;12.784;2024-02-16T13:24:24;96214.78;;;15.94
73894;BMP280;62699;50.534;12.784;2024-02-16T13:29:24;96211.25;;;15.86
73894;BMP280;62699;50.534;12.784;2024-02-16T13:34:25;96208.88;;;15.82
73894;BMP280;62699;50.534;12.784;2024-02-16T13:39:27;96218.88;;;15.66
73894;BMP280;62699;50.534;12.784;2024-02-16T13:44:27;96220.47;;;15.83
73894;BMP280;62699;50.534;12.784;2024-02-16T13:49:27;96230.25;;;15.86
73894;BMP280;62699;50.534;12.784;2024-02-16T13:54:28;96222.50;;;15.69
73894;BMP280;62699;50.534;12.784;2024-02-16T13:59:29;96224.75;;;15.57
73894;BMP280;62699;50.534;12.784;2024-02-16T14:04:31;96241.06;;;15.57
73894;BMP280;62699;50.534;12.784;2024-02-16T14:09:32;96245.44;;;15.60
73894;BMP280;62699;50.534;12.784;2024-02-16T14:14:32;96242.25;;;15.49
73894;BMP280;62699;50.534;12.784;2024-02-16T14:19:32;96247.84;;;15.30
73894;BMP280;62699;50.534;12.784;2024-02-16T14:24:37;96241.22;;;15.18
73894;BMP280;62699;50.534;12.784;2024-02-16T14:29:37;96257.63;;;15.12
73894;BMP280;62699;50.534;12.784;2024-02-16T14:34:37;96259.41;;;15.10
73894;BMP280;62699;50.534;12.784;2024-02-16T14:39:37;96269.75;;;15.11
73894;BMP280;62699;50.534;12.784;2024-02-16T14:44:38;96272.88;;;15.02
73894;BMP280;62699;50.534;12.784;2024-02-16T14:49:38;96285.59;;;14.94
73894;BMP280;62699;50.534;12.784;2024-02-16T14:54:38;96281.09;;;14.84
73894;BMP280;62699;50.534;12.784;2024-02-16T14:59:39;96290.31;;;14.67
73894;BMP280;62699;50.534;12.784;2024-02-16T15:04:40;96294.47;;;14.55
73894;BMP280;62699;50.534;12.784;2024-02-16T15:09:40;96301.97;;;14.49
73894;BMP280;62699;50.534;12.784;2024-02-16T15:14:40;96299.19;;;14.42
73894;BMP280;62699;50.534;12.784;2024-02-16T15:19:41;96313.94;;;14.27
73894;BMP280;62699;50.534;12.784;2024-02-16T15:24:41;96321.28;;;14.14
73894;BMP280;62699;50.534;12.784;2024-02-16T15:29:42;96332.06;;;13.88
73894;BMP280;62699;50.534;12.784;2024-02-16T15:34:44;96328.34;;;13.72
73894;BMP280;62699;50.534;12.784;2024-02-16T15:39:48;96322.44;;;13.55
73894;BMP280;62699;50.534;12.784;2024-02-16T15:44:48;96326.03;;;13.44
73894;BMP280;62699;50.534;12.784;2024-02-16T15:49:48;96320.56;;;13.31
73894;BMP280;62699;50.534;12.784;2024-02-16T15:54:48;96307.75;;;13.13
73894;BMP280;62699;50.534;12.784;2024-02-16T15:59:49;96305.41;;;13.04
73894;BMP280;62699;50.534;12.784;2024-02-16T16:04:49;96310.00;;;12.90
73894;BMP280;62699;50.534;12.784;2024-02-16T16:09:53;96317.28;;;12.76
73894;BMP280;62699;50.534;12.784;2024-02-16T16:14:54;96311.22;;;12.65
73894;BMP280;62699;50.534;12.784;2024-02-16T16:19:54;96321.00;;;12.49
73894;BMP280;62699;50.534;12.784;2024-02-16T16:24:54;96322.88;;;12.54
73894;BMP280;62699;50.534;12.784;2024-02-16T16:29:55;96329.13;;;12.44
73894;BMP280;62699;50.534;12.784;2024-02-16T16:34:55;96334.91;;;12.29
73894;BMP280;62699;50.534;12.784;2024-02-16T16:39:56;96337.47;;;12.16
73894;BMP280;62699;50.534;12.784;2024-02-16T16:44:56;96349.00;;;12.11
73894;BMP280;62699;50.534;12.784;2024-02-16T16:49:57;96362.72;;;12.18
73894;BMP280;62699;50.534;12.784;2024-02-16T16:54:57;96355.84;;;12.17
73894;BMP280;62699;50.534;12.784;2024-02-16T16:59:57;96369.38;;;12.12
73894;BMP280;62699;50.534;12.784;2024-02-16T17:04:57;96377.72;;;12.14
73894;BMP280;62699;50.534;12.784;2024-02-16T17:09:58;96378.75;;;12.05
73894;BMP280;62699;50.534;12.784;2024-02-16T17:14:58;96382.25;;;11.95
73894;BMP280;62699;50.534;12.784;2024-02-16T17:19:59;96383.78;;;11.84
73894;BMP280;62699;50.534;12.784;2024-02-16T17:25:00;96389.00;;;11.71
73894;BMP280;62699;50.534;12.784;2024-02-16T17:30:03;96400.06;;;11.62
73894;BMP280;62699;50.534;12.784;2024-02-16T17:35:04;96402.81;;;11.57
73894;BMP280;62699;50.534;12.784;2024-02-16T17:40:05;96404.75;;;11.56
73894;BMP280;62699;50.534;12.784;2024-02-16T17:45:06;96403.75;;;11.59
73894;BMP280;62699;50.534;12.784;2024-02-16T17:50:07;96410.59;;;11.60
73894;BMP280;62699;50.534;12.784;2024-02-16T17:55:08;96416.53;;;11.53
73894;BMP280;62699;50.534;12.784;2024-02-16T18:00:08;96420.97;;;11.51
73894;BMP280;62699;50.534;12.784;2024-02-16T18:05:10;96432.16;;;11.71
73894;BMP280;62699;50.534;12.784;2024-02-16T18:10:11;96432.53;;;11.98
73894;BMP280;62699;50.534;12.784;2024-02-16T18:15:11;96437.25;;;11.86
73894;BMP280;62699;50.534;12.784;2024-02-16T18:20:12;96434.00;;;11.93
73894;BMP280;62699;50.534;12.784;2024-02-16T18:25:13;96442.94;;;12.18
73894;BMP280;62699;50.534;12.784;2024-02-16T18:30:13;96438.22;;;12.29
73894;BMP280;62699;50.534;12.784;2024-02-16T18:35:14;96452.97;;;12.23
73894;BMP280;62699;50.534;12.784;2024-02-16T18:40:14;96466.16;;;12.32
73894;BMP280;62699;50.534;12.784;2024-02-16T18:45:15;96465.59;;;12.04
73894;BMP280;62699;50.534;12.784;2024-02-16T18:50:15;96467.41;;;11.84
73894;BMP280;62699;50.534;12.784;2024-02-16T18:55:15;96471.88;;;11.71
73894;BMP280;62699;50.534;12.784;2024-02-16T19:00:16;96482.19;;;11.67
73894;BMP280;62699;50.534;12.784;2024-02-16T19:05:16;96481.44;;;11.66
73894;BMP280;62699;50.534;12.784;2024-02-16T19:10:17;96496.19;;;11.54
73894;BMP280;62699;50.534;12.784;2024-02-16T19:15:18;96497.38;;;11.59
73894;BMP280;62699;50.534;12.784;2024-02-16T19:20:18;96501.56;;;11.65
73894;BMP280;62699;50.534;12.784;2024-02-16T19:25:18;96488.78;;;11.71
73894;BMP280;62699;50.534;12.784;2024-02-16T19:30:19;96502.50;;;11.73
73894;BMP280;62699;50.534;12.784;2024-02-16T19:35:20;96507.38;;;11.80
73894;BMP280;62699;50.534;12.784;2024-02-16T19:40:22;96511.31;;;11.74
73894;BMP280;62699;50.534;12.784;2024-02-16T19:45:22;96514.00;;;11.85
73894;BMP280;62699;50.534;12.784;2024-02-16T19:50:24;96512.03;;;11.85
73894;BMP280;62699;50.534;12.784;2024-02-16T19:55:24;96523.84;;;11.77
73894;BMP280;62699;50.534;12.784;2024-02-16T20:00:24;96522.56;;;11.83
73894;BMP280;62699;50.534;12.784;2024-02-16T20:05:25;96522.63;;;11.78
73894;BMP280;62699;50.534;12.784;2024-02-16T20:10:25;96534.66;;;11.66
73894;BMP280;62699;50.534;12.784;2024-02-16T20:15:26;96546.44;;;11.52
73894;BMP280;62699;50.534;12.784;2024-02-16T20:20:30;96551.59;;;11.44
73894;BMP280;62699;50.534;12.784;2024-02-16T20:25:30;96537.16;;;11.36
73894;BMP280;62699;50.534;12.784;2024-02-16T20:30:31;96544.28;;;11.28
73894;BMP280;62699;50.534;12.784;2024-02-16T20:35:32;96540.13;;;11.27
73894;BMP280;62699;50.534;12.784;2024-02-16T20:40:32;96543.50;;;11.22
73894;BMP280;62699;50.534;12.784;2024-02-16T20:45:33;96547.44;;;11.15
73894;BMP280;62699;50.534;12.784;2024-02-16T20:50:33;96547.44;;;11.15
73894;BMP280;62699;50.534;12.784;2024-02-16T20:55:34;96547.19;;;11.30
73894;BMP280;62699;50.534;12.784;2024-02-16T21:00:34;96553.09;;;11.23
73894;BMP280;62699;50.534;12.784;2024-02-16T21:05:35;96570.00;;;11.12
73894;BMP280;62699;50.534;12.784;2024-02-16T21:10:35;96565.81;;;11.06
73894;BMP280;62699;50.534;12.784;2024-02-16T21:15:36;96565.56;;;11.09
73894;BMP280;62699;50.534;12.784;2024-02-16T21:20:36;96567.31;;;11.18
73894;BMP280;62699;50.534;12.784;2024-02-16T21:25:37;96581.03;;;11.20
73894;BMP280;62699;50.534;12.784;2024-02-16T21:30:37;96578.56;;;11.22
73894;BMP280;62699;50.534;12.784;2024-02-16T21:35:37;96589.84;;;11.15
73894;BMP280;62699;50.534;12.784;2024-02-16T21:40:39;96581.97;;;11.06
73894;BMP280;62699;50.534;12.784;2024-02-16T21:45:42;96585.13;;;10.98
73894;BMP280;62699;50.534;12.784;2024-02-16T21:50:42;96589.59;;;10.96
73894;BMP280;62699;50.534;12.784;2024-02-16T21:55:43;96584.41;;;10.92
73894;BMP280;62699;50.534;12.784;2024-02-16T22:00:43;96587.84;;;10.87
73894;BMP280;62699;50.534;12.784;2024-02-16T22:05:44;96592.25;;;10.85
73894;BMP280;62699;50.534;12.784;2024-02-16T22:10:44;96593.44;;;10.78
73894;BMP280;62699;50.534;12.784;2024-02-16T22:15:44;96598.13;;;10.83
73894;BMP280;62699;50.534;12.784;2024-02-16T22:20:46;96600.38;;;10.96
73894;BMP280;62699;50.534;12.784;2024-02-16T22:25:47;96594.97;;;11.18
73894;BMP280;62699;50.534;12.784;2024-02-16T22:30:48;96601.84;;;11.47
73894;BMP280;62699;50.534;12.784;2024-02-16T22:35:48;96604.50;;;11.69
73894;BMP280;62699;50.534;12.784;2024-02-16T22:40:50;96604.50;;;11.80
73894;BMP280;62699;50.534;12.784;2024-02-16T22:45:50;96605.69;;;11.90
73894;BMP280;62699;50.534;12.784;2024-02-16T22:50:50;96609.88;;;11.91
73894;BMP280;62699;50.534;12.784;2024-02-16T22:55:51;96622.13;;;11.81
73894;BMP280;62699;50.534;12.784;2024-02-16T23:00:53;96632.44;;;11.88
73894;BMP280;62699;50.534;12.784;2024-02-16T23:05:56;96618.72;;;11.75
73894;BMP280;62699;50.534;12.784;2024-02-16T23:10:59;96631.97;;;11.62
73894;BMP280;62699;50.534;12.784;2024-02-16T23:15:59;96637.13;;;11.55
73894;BMP280;62699;50.534;12.784;2024-02-16T23:21:00;96656.25;;;11.51
73894;BMP280;62699;50.534;12.784;2024-02-16T23:26:00;96652.06;;;11.39
73894;BMP280;62699;50.534;12.784;2024-02-16T23:31:01;96659.16;;;11.31
73894;BMP280;62699;50.534;12.784;2024-02-16T23:36:01;96660.19;;;11.28
73894;BMP280;62699;50.534;12.784;2024-02-16T23:41:01;96665.31;;;11.26
73894;BMP280;62699;50.534;12.784;2024-02-16T23:46:01;96679.06;;;11.28
73894;BMP280;62699;50.534;12.784;2024-02-16T23:51:04;96679.75;;;11.17
73894;BMP280;62699;50.534;12.784;2024-02-16T23:56:05;96680.47;;;11.12
